Overview Statistics Trail Chart Weather Telemetry Raw packets
 

This is the latest recevied weather packets stored in our database for station/object N7WLC. If no packets are shown the sender has not sent any weather packets the latest 10 day(s).

<< 1 2 3 4 5 6 7 >>
Time Temp. Humidity Pressure Rain* Wind** Luminosity Snow
1788464591 27.78° C 52% 1013.2 hPa 0 mm 0.89 m/s, 284° - -
1788462790 27.22° C 51% 1013.6 hPa 0 mm 1.34 m/s, 190° - -
1788460991 26.67° C 51% 1013.9 hPa 0 mm 0.45 m/s, 214° - -
1788459190 26.11° C 51% 1014 hPa 0 mm 0.45 m/s, 310° - -
1788457391 26.11° C 51% 1014 hPa 0 mm 0.89 m/s, 116° - -
1788455590 25° C 53% 1014.4 hPa 0 mm 0.45 m/s, 39° - -
1788453791 23.89° C 57% 1014.3 hPa 0 mm 0 m/s - -
1788451991 21.67° C 67% 1014.5 hPa 0 mm 0 m/s - -
1788450191 20.56° C 72% 1014.6 hPa 0 mm 0 m/s - -
1788448390 19.44° C 75% 1014.4 hPa 0 mm 0.89 m/s, 61° - -
1788446589 17.78° C 80% 1014.4 hPa 0 mm 0 m/s - -
1788444789 15° C 89% 1014 hPa 0 mm 0 m/s - -
1788442990 13.89° C 92% 1014.2 hPa 0 mm 0 m/s - -
1788441189 13.89° C 89% 1014 hPa 0 mm 0 m/s - -
1788439389 13.89° C 90% 1013.8 hPa 0 mm 0 m/s - -
1788437590 13.89° C 94% 1014 hPa 0 mm 0 m/s - -
1788435789 14.44° C 94% 1014.3 hPa 0 mm 0 m/s - -
1788433989 14.44° C 94% 1014.2 hPa 0 mm 0 m/s - -
1788432190 15° C 95% 1014.3 hPa 0 mm 0 m/s - -
1788430389 15° C 94% 1014.4 hPa 0 mm 0 m/s - -
1788428589 15° C 93% 1014.4 hPa 0 mm 0 m/s - -
1788426789 15° C 92% 1014.8 hPa 0 mm 0 m/s - -
1788424990 15.56° C 92% 1014.8 hPa 0 mm 0 m/s - -
1788423189 15.56° C 92% 1014.9 hPa 0 mm 0 m/s - -
1788421389 16.11° C 92% 1014.7 hPa 0 mm 0 m/s - -

* Rain latest hour (hover to see other rain measurements)
** Current wind speed in m/s (hover to see current wind gust speed)